Time;durP1;ratioP1;P1;durP2;ratioP2;P2;SDS_P1;SDS_P2;PMS_P1;PMS_P2;Temp;Humidity;BMP_temperature;BMP_pressure;BME280_temperature;BME280_humidity;BME280_pressure;Samples;Min_cycle;Max_cycle;Signal;HPM_P1;HPM_P2
2021/12/31 00:01:31;;;;;;;11.45;2.47;;;;;;;;;;5077008;28;20111;-90
2021/12/31 00:03:57;;;;;;;10.38;2.58;;;;;;;;;;5094714;28;20040;-90
2021/12/31 00:06:23;;;;;;;10.48;2.60;;;;;;;;;;5093609;28;20032;-90
2021/12/31 00:08:49;;;;;;;13.75;2.72;;;;;;;;;;5093635;28;20040;-90
2021/12/31 00:11:15;;;;;;;11.25;2.45;;;;;;;;;;5093796;28;20093;-92
2021/12/31 00:13:41;;;;;;;15.93;2.45;;;;;;;;;;5093420;28;20539;-90
2021/12/31 00:16:07;;;;;;;13.02;2.38;;;;;;;;;;5094866;28;20124;-90
2021/12/31 00:18:33;;;;;;;12.88;2.80;;;;;;;;;;5094457;28;20123;-89
2021/12/31 00:20:59;;;;;;;19.52;3.10;;;;;;;;;;5093212;28;20124;-89
2021/12/31 00:23:26;;;;;;;12.25;2.83;;;;;;;;;;5092921;28;20059;-90
2021/12/31 00:25:52;;;;;;;13.00;2.88;;;;;;;;;;5093056;28;20048;-90
2021/12/31 00:28:18;;;;;;;12.10;2.83;;;;;;;;;;5093366;28;20391;-91
2021/12/31 00:30:51;;;;;;;16.50;2.60;;;;;;;;;;5094334;28;20115;-90
2021/12/31 00:33:17;;;;;;;13.48;2.90;;;;;;;;;;5092891;28;20044;-91
2021/12/31 00:35:43;;;;;;;11.68;2.33;;;;;;;;;;5093093;28;20085;-91
2021/12/31 00:38:09;;;;;;;13.90;2.97;;;;;;;;;;5092742;28;20384;-91
2021/12/31 00:40:35;;;;;;;8.93;2.80;;;;;;;;;;5094147;28;20040;-91
2021/12/31 00:43:01;;;;;;;11.10;2.47;;;;;;;;;;5092985;28;20044;-91
2021/12/31 00:45:27;;;;;;;13.70;3.17;;;;;;;;;;5092751;28;20283;-91
2021/12/31 00:47:53;;;;;;;13.20;3.08;;;;;;;;;;5094065;28;20044;-90
2021/12/31 00:50:19;;;;;;;11.60;3.17;;;;;;;;;;5094129;28;20044;-90
2021/12/31 00:52:45;;;;;;;16.30;3.45;;;;;;;;;;5093770;28;20047;-90
2021/12/31 00:55:12;;;;;;;10.77;3.20;;;;;;;;;;5092494;28;20387;-90
2021/12/31 00:57:38;;;;;;;14.35;3.42;;;;;;;;;;5092882;28;20448;-92
2021/12/31 01:00:05;;;;;;;15.55;3.15;;;;;;;;;;5093632;28;20075;-89
2021/12/31 01:02:31;;;;;;;18.50;3.35;;;;;;;;;;5092737;28;20043;-91
2021/12/31 01:04:57;;;;;;;16.05;2.75;;;;;;;;;;5093767;28;20040;-91
2021/12/31 01:07:23;;;;;;;15.18;2.75;;;;;;;;;;5092692;28;20400;-90
2021/12/31 01:09:49;;;;;;;16.42;2.83;;;;;;;;;;5093527;28;20093;-91
2021/12/31 01:12:15;;;;;;;14.32;3.40;;;;;;;;;;5092274;28;20036;-91
2021/12/31 01:14:56;;;;;;;16.15;3.33;;;;;;;;;;5093426;28;20368;-91
2021/12/31 01:17:44;;;;;;;15.35;3.95;;;;;;;;;;5092695;28;20467;-89
2021/12/31 01:20:11;;;;;;;17.92;3.17;;;;;;;;;;5075231;28;20485;-92
2021/12/31 01:22:37;;;;;;;13.70;3.05;;;;;;;;;;5092828;28;20495;-91
2021/12/31 01:25:04;;;;;;;16.35;3.47;;;;;;;;;;5091711;28;20056;-90
2021/12/31 01:27:31;;;;;;;15.13;3.22;;;;;;;;;;5093754;28;20059;-92
2021/12/31 01:29:57;;;;;;;14.52;3.35;;;;;;;;;;5092005;28;20043;-90
2021/12/31 01:32:24;;;;;;;15.65;3.67;;;;;;;;;;5093570;28;20036;-91
2021/12/31 01:34:50;;;;;;;14.68;3.35;;;;;;;;;;5091984;28;20043;-90
2021/12/31 01:37:16;;;;;;;13.20;3.58;;;;;;;;;;5093606;28;20036;-91
2021/12/31 01:39:42;;;;;;;16.20;3.47;;;;;;;;;;5091889;28;20051;-91
2021/12/31 01:42:11;;;;;;;14.23;2.92;;;;;;;;;;5092088;28;20486;-90
2021/12/31 01:44:41;;;;;;;13.40;3.33;;;;;;;;;;5092009;28;20048;-93
2021/12/31 01:47:11;;;;;;;11.45;3.28;;;;;;;;;;5091958;28;20055;-91
2021/12/31 01:49:40;;;;;;;22.73;4.38;;;;;;;;;;5092857;28;20044;-91
2021/12/31 01:52:09;;;;;;;20.35;4.80;;;;;;;;;;5092126;28;20119;-90
2021/12/31 01:54:36;;;;;;;14.00;3.08;;;;;;;;;;5093285;28;20036;-92
2021/12/31 01:57:03;;;;;;;15.52;2.90;;;;;;;;;;5092103;28;20043;-92
2021/12/31 01:59:29;;;;;;;17.20;3.88;;;;;;;;;;5093082;28;20031;-91
2021/12/31 02:01:56;;;;;;;15.45;3.53;;;;;;;;;;5092046;28;20044;-90
2021/12/31 02:04:22;;;;;;;19.25;4.30;;;;;;;;;;5092730;28;20043;-90
2021/12/31 02:06:48;;;;;;;14.57;3.03;;;;;;;;;;5093009;28;20039;-90
2021/12/31 02:09:14;;;;;;;18.88;3.47;;;;;;;;;;5091587;28;20467;-91
2021/12/31 02:11:41;;;;;;;18.05;3.90;;;;;;;;;;5091666;28;20036;-91
2021/12/31 02:14:07;;;;;;;14.70;4.00;;;;;;;;;;5092999;28;20040;-91
2021/12/31 02:16:33;;;;;;;12.88;3.97;;;;;;;;;;5093122;28;20079;-90
2021/12/31 02:19:10;;;;;;;11.52;3.17;;;;;;;;;;5092842;28;20040;-90
2021/12/31 02:21:36;;;;;;;13.50;3.63;;;;;;;;;;5093193;28;20115;-91
2021/12/31 02:24:06;;;;;;;13.27;3.45;;;;;;;;;;5092576;28;20112;-92
2021/12/31 02:26:32;;;;;;;14.43;3.72;;;;;;;;;;5092700;28;20554;-91
2021/12/31 02:28:58;;;;;;;17.67;3.55;;;;;;;;;;5092003;28;20054;-92
2021/12/31 02:31:24;;;;;;;14.70;3.58;;;;;;;;;;5093053;28;20047;-90
2021/12/31 02:33:50;;;;;;;17.05;3.75;;;;;;;;;;5093018;28;20036;-90
2021/12/31 02:36:17;;;;;;;13.85;3.15;;;;;;;;;;5091402;28;20050;-93
2021/12/31 02:38:44;;;;;;;11.70;3.35;;;;;;;;;;5092055;28;20126;-92
2021/12/31 02:41:10;;;;;;;11.00;3.17;;;;;;;;;;5091789;28;20044;-92
2021/12/31 02:43:37;;;;;;;13.73;3.38;;;;;;;;;;5092772;28;20395;-88
2021/12/31 02:46:03;;;;;;;13.88;3.65;;;;;;;;;;5091418;28;20072;-90
2021/12/31 02:48:29;;;;;;;11.85;3.05;;;;;;;;;;5092855;28;20036;-92
2021/12/31 02:50:56;;;;;;;15.65;2.97;;;;;;;;;;5091302;28;20150;-92
2021/12/31 02:53:31;;;;;;;12.13;3.20;;;;;;;;;;5092884;28;20068;-91
2021/12/31 02:56:04;;;;;;;9.95;2.75;;;;;;;;;;5092851;28;20488;-91
2021/12/31 02:58:30;;;;;;;12.15;3.22;;;;;;;;;;5092713;28;20047;-91
2021/12/31 03:00:56;;;;;;;17.10;3.05;;;;;;;;;;5091855;28;20044;-92
2021/12/31 03:03:24;;;;;;;12.07;2.78;;;;;;;;;;5096544;28;20036;-90
2021/12/31 03:05:52;;;;;;;9.85;2.80;;;;;;;;;;5096019;28;20044;-89
2021/12/31 03:08:19;;;;;;;10.60;2.90;;;;;;;;;;5096362;28;20040;-90
2021/12/31 03:10:46;;;;;;;11.52;3.05;;;;;;;;;;5095092;28;20044;-93
2021/12/31 03:13:14;;;;;;;8.27;2.60;;;;;;;;;;5096234;28;20549;-89
2021/12/31 03:15:40;;;;;;;13.07;3.25;;;;;;;;;;5096097;28;20483;-92
2021/12/31 03:18:06;;;;;;;12.77;2.90;;;;;;;;;;5096106;28;20123;-91
2021/12/31 03:20:36;;;;;;;12.00;2.90;;;;;;;;;;5096007;28;20123;-90
2021/12/31 03:23:02;;;;;;;12.23;2.75;;;;;;;;;;5095918;28;20036;-92
2021/12/31 03:25:29;;;;;;;9.90;2.88;;;;;;;;;;5095899;28;20059;-91
2021/12/31 03:27:55;;;;;;;10.93;3.05;;;;;;;;;;5095086;28;20120;-90
2021/12/31 03:30:21;;;;;;;12.65;3.47;;;;;;;;;;5094747;28;20071;-91
2021/12/31 03:32:47;;;;;;;8.70;2.85;;;;;;;;;;5095927;28;20046;-91
2021/12/31 03:35:12;;;;;;;11.48;2.60;;;;;;;;;;5094160;28;20047;-91
2021/12/31 03:37:39;;;;;;;10.00;2.70;;;;;;;;;;5094664;28;20100;-93
2021/12/31 03:40:05;;;;;;;10.60;2.85;;;;;;;;;;5095409;28;20032;-92
2021/12/31 03:42:32;;;;;;;13.80;3.63;;;;;;;;;;5095542;28;20028;-93
2021/12/31 03:44:57;;;;;;;7.28;2.83;;;;;;;;;;5095537;28;20085;-90
2021/12/31 03:47:23;;;;;;;8.65;2.45;;;;;;;;;;5094530;28;20076;-91
2021/12/31 03:49:50;;;;;;;8.88;2.92;;;;;;;;;;5094221;28;20047;-91
2021/12/31 03:52:16;;;;;;;8.68;2.55;;;;;;;;;;5095466;28;20487;-91
2021/12/31 03:54:42;;;;;;;8.07;2.30;;;;;;;;;;5094156;28;20391;-91
2021/12/31 03:57:08;;;;;;;7.93;2.33;;;;;;;;;;5094938;28;20044;-90
2021/12/31 03:59:34;;;;;;;8.40;2.05;;;;;;;;;;5095071;28;20093;-90
2021/12/31 04:01:59;;;;;;;8.55;2.35;;;;;;;;;;5093892;28;20040;-91
2021/12/31 04:04:25;;;;;;;7.95;2.25;;;;;;;;;;5093880;28;20097;-89
2021/12/31 04:06:52;;;;;;;8.82;2.20;;;;;;;;;;5094947;28;20395;-91
2021/12/31 04:09:18;;;;;;;9.00;2.13;;;;;;;;;;5093995;28;20036;-90
2021/12/31 04:11:43;;;;;;;8.45;2.20;;;;;;;;;;5094247;28;20040;-89
2021/12/31 04:14:09;;;;;;;11.13;2.33;;;;;;;;;;5093691;28;20062;-90
2021/12/31 04:16:35;;;;;;;9.52;2.28;;;;;;;;;;5094742;28;20040;-90
2021/12/31 04:19:01;;;;;;;9.02;1.90;;;;;;;;;;5093500;28;20070;-89
2021/12/31 04:21:30;;;;;;;7.38;2.78;;;;;;;;;;5094790;28;20046;-91
2021/12/31 04:24:14;;;;;;;10.05;2.60;;;;;;;;;;5076309;28;20407;-90
2021/12/31 04:26:40;;;;;;;9.00;2.40;;;;;;;;;;5093169;28;20040;-91
2021/12/31 04:29:06;;;;;;;7.82;2.08;;;;;;;;;;5094874;28;20036;-91
2021/12/31 04:31:32;;;;;;;10.25;2.28;;;;;;;;;;5093010;28;20386;-91
2021/12/31 04:33:59;;;;;;;8.77;2.42;;;;;;;;;;5093178;28;20046;-90
2021/12/31 04:36:25;;;;;;;8.85;2.05;;;;;;;;;;5093169;28;20101;-90
2021/12/31 04:38:51;;;;;;;7.15;2.00;;;;;;;;;;5093294;28;20169;-89
2021/12/31 04:41:17;;;;;;;7.40;2.20;;;;;;;;;;5093120;28;20115;-91
2021/12/31 04:43:43;;;;;;;8.02;2.10;;;;;;;;;;5093113;28;20509;-92
2021/12/31 04:46:10;;;;;;;7.43;2.10;;;;;;;;;;5093021;28;20047;-93
2021/12/31 04:48:36;;;;;;;12.02;2.30;;;;;;;;;;5093538;28;20036;-91
2021/12/31 04:51:02;;;;;;;8.05;2.10;;;;;;;;;;5094275;28;20032;-89
2021/12/31 04:53:28;;;;;;;7.47;2.05;;;;;;;;;;5094234;28;20115;-92
2021/12/31 04:55:54;;;;;;;9.80;2.40;;;;;;;;;;5093078;28;20119;-91
2021/12/31 04:58:20;;;;;;;10.40;2.55;;;;;;;;;;5092967;28;20048;-91
2021/12/31 05:00:46;;;;;;;8.77;2.00;;;;;;;;;;5093292;28;20104;-93
2021/12/31 05:03:14;;;;;;;6.43;2.00;;;;;;;;;;5094281;28;20565;-92
2021/12/31 05:05:40;;;;;;;8.48;2.00;;;;;;;;;;5092864;28;20057;-93
2021/12/31 05:08:06;;;;;;;8.30;2.45;;;;;;;;;;5093015;28;20042;-92
2021/12/31 05:10:33;;;;;;;7.40;2.20;;;;;;;;;;5094218;28;20047;-92
2021/12/31 05:12:59;;;;;;;7.95;2.35;;;;;;;;;;5092548;28;20044;-92
2021/12/31 05:15:27;;;;;;;10.30;3.03;;;;;;;;;;5093984;28;20071;-91
2021/12/31 05:17:54;;;;;;;9.60;2.95;;;;;;;;;;5092693;28;20048;-90
2021/12/31 05:20:20;;;;;;;9.48;2.88;;;;;;;;;;5092534;28;20104;-92
2021/12/31 05:22:46;;;;;;;8.27;3.53;;;;;;;;;;5093359;28;20048;-90
2021/12/31 05:25:12;;;;;;;12.75;4.10;;;;;;;;;;5091805;28;20447;-92
2021/12/31 05:27:38;;;;;;;7.05;3.70;;;;;;;;;;5093607;28;20056;-91
2021/12/31 05:30:04;;;;;;;9.32;4.13;;;;;;;;;;5092311;28;20040;-92
2021/12/31 05:32:31;;;;;;;10.20;4.03;;;;;;;;;;5093453;28;20036;-92
2021/12/31 05:34:56;;;;;;;9.93;4.18;;;;;;;;;;5092099;28;20115;-89
2021/12/31 05:37:22;;;;;;;9.68;3.63;;;;;;;;;;5092372;28;20113;-88
2021/12/31 05:39:48;;;;;;;9.38;4.00;;;;;;;;;;5092395;28;20054;-90
2021/12/31 05:42:14;;;;;;;10.32;4.05;;;;;;;;;;5093065;28;20028;-89
2021/12/31 05:44:40;;;;;;;7.55;3.75;;;;;;;;;;5093374;28;20055;-89
2021/12/31 05:47:07;;;;;;;8.85;4.05;;;;;;;;;;5091739;28;20040;-89
2021/12/31 05:49:33;;;;;;;7.22;3.38;;;;;;;;;;5091925;28;20044;-89
2021/12/31 05:51:59;;;;;;;9.30;3.85;;;;;;;;;;5092813;28;20040;-91
2021/12/31 05:54:25;;;;;;;5.88;3.15;;;;;;;;;;5092141;28;20123;-91
2021/12/31 05:56:51;;;;;;;10.52;3.63;;;;;;;;;;5092879;28;20044;-89
2021/12/31 05:59:17;;;;;;;9.25;3.28;;;;;;;;;;5093301;28;20044;-91
2021/12/31 06:01:43;;;;;;;8.70;3.88;;;;;;;;;;5091667;28;20044;-88
2021/12/31 06:04:09;;;;;;;8.77;3.05;;;;;;;;;;5093234;28;20050;-89
2021/12/31 06:06:35;;;;;;;9.48;3.35;;;;;;;;;;5091472;28;20040;-91
2021/12/31 06:09:01;;;;;;;10.40;3.10;;;;;;;;;;5093171;28;20414;-90
2021/12/31 06:11:28;;;;;;;8.88;3.00;;;;;;;;;;5093007;28;20036;-92
2021/12/31 06:14:00;;;;;;;6.97;2.50;;;;;;;;;;5091641;28;20040;-90
2021/12/31 06:16:26;;;;;;;7.68;2.50;;;;;;;;;;5092779;28;20376;-91
2021/12/31 06:18:52;;;;;;;6.90;3.08;;;;;;;;;;5093085;28;20047;-89
2021/12/31 06:21:18;;;;;;;7.55;3.22;;;;;;;;;;5093108;28;20044;-91
2021/12/31 06:23:44;;;;;;;8.13;2.90;;;;;;;;;;5091367;28;20052;-91
2021/12/31 06:26:10;;;;;;;7.55;2.70;;;;;;;;;;5091398;28;20419;-88
2021/12/31 06:28:36;;;;;;;8.90;2.75;;;;;;;;;;5092988;28;20059;-86
2021/12/31 06:31:02;;;;;;;9.23;2.50;;;;;;;;;;5092113;28;20037;-91
2021/12/31 06:33:28;;;;;;;8.73;2.60;;;;;;;;;;5088342;28;20169;-89
2021/12/31 06:35:54;;;;;;;6.40;2.50;;;;;;;;;;5080693;28;20447;-91
2021/12/31 06:38:20;;;;;;;7.78;2.53;;;;;;;;;;5081315;28;20035;-91
2021/12/31 06:40:47;;;;;;;7.35;2.58;;;;;;;;;;5081721;28;20055;-88
2021/12/31 06:43:13;;;;;;;9.40;2.58;;;;;;;;;;5082514;28;20063;-92
2021/12/31 06:45:39;;;;;;;5.97;2.25;;;;;;;;;;5077595;28;20404;-91
2021/12/31 06:48:05;;;;;;;6.13;2.58;;;;;;;;;;5086288;28;20058;-90
2021/12/31 06:50:31;;;;;;;8.38;2.70;;;;;;;;;;5082793;28;20051;-90
2021/12/31 06:52:57;;;;;;;8.77;2.63;;;;;;;;;;5077298;28;20048;-91
2021/12/31 06:55:23;;;;;;;8.32;2.03;;;;;;;;;;5089378;28;20036;-91
2021/12/31 06:57:50;;;;;;;6.10;2.50;;;;;;;;;;5078115;28;20032;-91
2021/12/31 07:00:16;;;;;;;10.07;2.47;;;;;;;;;;5077336;28;20044;-89
2021/12/31 07:02:42;;;;;;;7.55;2.25;;;;;;;;;;5083440;28;20076;-91
2021/12/31 07:05:08;;;;;;;8.10;2.15;;;;;;;;;;5088613;28;20993;-91
2021/12/31 07:07:34;;;;;;;8.40;2.13;;;;;;;;;;5081138;28;20500;-91
2021/12/31 07:10:00;;;;;;;6.63;2.20;;;;;;;;;;5079968;28;20036;-91
2021/12/31 07:12:26;;;;;;;4.68;2.05;;;;;;;;;;5088493;28;20083;-91
2021/12/31 07:14:52;;;;;;;4.80;2.05;;;;;;;;;;5080673;28;20493;-92
2021/12/31 07:17:18;;;;;;;6.07;2.15;;;;;;;;;;5079067;28;20044;-91
2021/12/31 07:19:44;;;;;;;6.63;2.42;;;;;;;;;;5087259;28;20044;-91
2021/12/31 07:22:10;;;;;;;5.55;1.98;;;;;;;;;;5082465;28;20496;-92
2021/12/31 07:24:37;;;;;;;7.20;2.10;;;;;;;;;;5079890;28;20190;-90
2021/12/31 07:27:03;;;;;;;6.22;2.03;;;;;;;;;;5085839;28;20044;-89
2021/12/31 07:29:29;;;;;;;5.57;1.90;;;;;;;;;;5087631;28;20040;-91
2021/12/31 07:31:55;;;;;;;6.30;2.15;;;;;;;;;;5086246;28;20044;-92
2021/12/31 07:34:21;;;;;;;10.82;2.20;;;;;;;;;;5076917;28;20051;-90
2021/12/31 07:36:47;;;;;;;6.90;2.10;;;;;;;;;;5082447;28;20049;-91
2021/12/31 07:39:13;;;;;;;6.63;2.10;;;;;;;;;;5079619;28;20070;-90
2021/12/31 07:41:40;;;;;;;6.22;2.40;;;;;;;;;;5081222;28;20083;-91
2021/12/31 07:44:06;;;;;;;7.07;2.35;;;;;;;;;;5068078;28;20090;-90
2021/12/31 07:46:32;;;;;;;5.93;2.13;;;;;;;;;;5085214;28;20094;-90
2021/12/31 07:48:58;;;;;;;8.15;2.40;;;;;;;;;;5084567;28;20409;-90
2021/12/31 07:51:24;;;;;;;6.80;2.30;;;;;;;;;;5082303;28;20382;-91
2021/12/31 07:53:50;;;;;;;5.28;2.20;;;;;;;;;;5082114;28;20090;-91
2021/12/31 07:56:19;;;;;;;7.75;2.30;;;;;;;;;;5085565;28;20044;-92
2021/12/31 07:58:46;;;;;;;5.93;2.63;;;;;;;;;;5071809;28;20055;-90
2021/12/31 08:01:12;;;;;;;8.68;2.20;;;;;;;;;;5088067;28;20050;-89
2021/12/31 08:03:38;;;;;;;8.60;2.47;;;;;;;;;;5078399;28;20044;-91
2021/12/31 08:06:03;;;;;;;6.57;2.42;;;;;;;;;;5075449;28;20051;-90
2021/12/31 08:08:29;;;;;;;7.53;2.63;;;;;;;;;;5085658;28;20142;-89
2021/12/31 08:10:55;;;;;;;7.68;2.22;;;;;;;;;;5081246;28;20036;-94
2021/12/31 08:13:22;;;;;;;8.00;2.67;;;;;;;;;;5078514;28;20621;-90
2021/12/31 08:15:48;;;;;;;5.50;2.20;;;;;;;;;;5089320;28;20054;-89
2021/12/31 08:18:14;;;;;;;8.32;2.78;;;;;;;;;;5083726;28;20048;-90
2021/12/31 08:20:40;;;;;;;9.90;2.47;;;;;;;;;;5081136;28;20048;-91
2021/12/31 08:23:11;;;;;;;6.32;2.15;;;;;;;;;;5088362;28;20040;-91
2021/12/31 08:25:38;;;;;;;6.93;2.28;;;;;;;;;;5080620;28;20066;-90
2021/12/31 08:28:04;;;;;;;6.53;2.42;;;;;;;;;;5081811;28;20044;-89
2021/12/31 08:30:30;;;;;;;7.53;2.85;;;;;;;;;;5082349;28;20045;-90
2021/12/31 08:32:56;;;;;;;5.78;2.40;;;;;;;;;;5079024;28;20044;-90
2021/12/31 08:35:22;;;;;;;7.15;2.30;;;;;;;;;;5075465;28;20145;-92
2021/12/31 08:37:48;;;;;;;5.85;2.40;;;;;;;;;;5079717;28;20044;-90
2021/12/31 08:40:14;;;;;;;5.30;2.60;;;;;;;;;;5080476;28;20087;-91
2021/12/31 08:42:40;;;;;;;6.88;2.80;;;;;;;;;;5094483;28;20036;-90
2021/12/31 08:45:06;;;;;;;5.28;2.33;;;;;;;;;;5089981;28;20040;-93
2021/12/31 08:47:33;;;;;;;7.60;2.45;;;;;;;;;;5073842;28;20106;-92
2021/12/31 08:49:58;;;;;;;7.70;2.65;;;;;;;;;;5072570;28;20041;-90
2021/12/31 08:52:24;;;;;;;6.57;2.08;;;;;;;;;;5072795;28;20450;-92
2021/12/31 08:54:50;;;;;;;7.15;2.38;;;;;;;;;;5072881;28;20047;-91
2021/12/31 08:57:16;;;;;;;6.38;2.40;;;;;;;;;;5073765;28;20047;-91
2021/12/31 08:59:43;;;;;;;7.30;2.40;;;;;;;;;;5073505;28;20048;-91
2021/12/31 09:02:09;;;;;;;8.05;2.50;;;;;;;;;;5072357;28;20589;-91
2021/12/31 09:04:35;;;;;;;7.43;2.60;;;;;;;;;;5073662;28;20047;-91
2021/12/31 09:07:01;;;;;;;7.63;2.45;;;;;;;;;;5073726;28;20041;-89
2021/12/31 09:09:27;;;;;;;8.80;3.63;;;;;;;;;;5072060;28;20514;-90
2021/12/31 09:11:54;;;;;;;5.63;2.97;;;;;;;;;;5072096;28;20075;-89
2021/12/31 09:14:20;;;;;;;9.10;3.15;;;;;;;;;;5072246;28;20067;-90
2021/12/31 09:16:47;;;;;;;8.02;3.28;;;;;;;;;;5072322;28;20044;-91
2021/12/31 09:19:13;;;;;;;7.07;2.85;;;;;;;;;;5072251;28;20040;-87
2021/12/31 09:21:39;;;;;;;6.78;3.17;;;;;;;;;;5073220;28;20545;-89
2021/12/31 09:24:06;;;;;;;11.82;3.63;;;;;;;;;;5072940;28;20135;-93
2021/12/31 09:26:32;;;;;;;5.45;2.95;;;;;;;;;;5073198;28;20114;-89
2021/12/31 09:28:59;;;;;;;6.80;3.05;;;;;;;;;;5072979;28;20484;-87
2021/12/31 09:31:25;;;;;;;8.43;3.03;;;;;;;;;;5071931;28;20055;-90
2021/12/31 09:33:51;;;;;;;7.00;3.10;;;;;;;;;;5055113;28;20036;-91
2021/12/31 09:36:17;;;;;;;9.10;2.90;;;;;;;;;;5073217;28;20040;-88
2021/12/31 09:38:43;;;;;;;8.15;3.08;;;;;;;;;;5071540;28;20049;-89
2021/12/31 09:41:09;;;;;;;6.60;2.67;;;;;;;;;;5071671;28;20036;-88
2021/12/31 09:43:38;;;;;;;9.02;3.17;;;;;;;;;;5072864;28;20047;-92
2021/12/31 09:46:04;;;;;;;8.75;2.70;;;;;;;;;;5073181;28;20132;-89
2021/12/31 09:48:30;;;;;;;7.65;2.63;;;;;;;;;;5072759;28;20116;-88
2021/12/31 09:50:56;;;;;;;7.15;2.80;;;;;;;;;;5072969;28;20056;-88
2021/12/31 09:53:24;;;;;;;7.70;2.83;;;;;;;;;;5071461;28;20067;-87
2021/12/31 09:55:54;;;;;;;8.07;2.60;;;;;;;;;;5071516;28;20045;-87
2021/12/31 09:58:21;;;;;;;7.32;2.60;;;;;;;;;;5071792;28;20047;-88
2021/12/31 10:00:49;;;;;;;5.93;2.50;;;;;;;;;;5071632;28;20221;-90
2021/12/31 10:03:16;;;;;;;6.55;2.42;;;;;;;;;;5072727;28;20041;-89
2021/12/31 10:05:43;;;;;;;6.90;2.55;;;;;;;;;;5072362;28;20045;-87
2021/12/31 10:08:15;;;;;;;7.50;2.47;;;;;;;;;;5071814;28;20063;-88
2021/12/31 10:10:41;;;;;;;6.85;2.65;;;;;;;;;;5073532;28;20037;-89
2021/12/31 10:13:07;;;;;;;8.23;2.55;;;;;;;;;;5075498;28;20476;-88
2021/12/31 10:15:38;;;;;;;5.75;2.53;;;;;;;;;;5076688;28;20044;-89
2021/12/31 10:18:12;;;;;;;7.22;2.80;;;;;;;;;;5076664;28;20048;-89
2021/12/31 10:20:51;;;;;;;10.18;3.05;;;;;;;;;;5075022;28;20044;-89
2021/12/31 10:23:17;;;;;;;9.00;2.95;;;;;;;;;;5076464;28;20052;-89
2021/12/31 10:25:43;;;;;;;6.63;2.80;;;;;;;;;;5075119;28;20464;-89
2021/12/31 10:28:11;;;;;;;7.68;3.42;;;;;;;;;;5075027;28;20503;-89
2021/12/31 10:30:37;;;;;;;6.53;2.97;;;;;;;;;;5075250;28;20079;-88
2021/12/31 10:33:04;;;;;;;7.07;2.75;;;;;;;;;;5076326;28;20055;-86
2021/12/31 10:35:37;;;;;;;7.30;3.05;;;;;;;;;;5076215;28;20036;-88
2021/12/31 10:38:06;;;;;;;7.32;3.10;;;;;;;;;;5076285;28;20429;-91
2021/12/31 10:40:36;;;;;;;8.93;3.40;;;;;;;;;;5074917;28;20036;-89
2021/12/31 10:43:21;;;;;;;6.45;3.15;;;;;;;;;;5075085;28;20047;-90
2021/12/31 10:45:54;;;;;;;8.80;3.03;;;;;;;;;;5076256;28;20373;-90
2021/12/31 10:48:20;;;;;;;7.85;3.25;;;;;;;;;;5076330;28;20141;-91
2021/12/31 10:50:51;;;;;;;5.72;3.15;;;;;;;;;;5074915;28;20493;-90
2021/12/31 10:53:32;;;;;;;6.93;2.90;;;;;;;;;;5074510;28;20055;-89
2021/12/31 10:56:05;;;;;;;7.28;3.15;;;;;;;;;;5057635;28;20055;-89
2021/12/31 10:58:31;;;;;;;6.13;2.60;;;;;;;;;;5074745;28;20141;-89
2021/12/31 11:00:59;;;;;;;5.57;2.85;;;;;;;;;;5074303;28;20055;-88
2021/12/31 11:03:25;;;;;;;8.68;3.35;;;;;;;;;;5074625;28;20139;-88
2021/12/31 11:05:51;;;;;;;7.93;2.92;;;;;;;;;;5075701;28;20118;-88
2021/12/31 11:08:17;;;;;;;8.75;3.30;;;;;;;;;;5074722;28;20036;-88
2021/12/31 11:10:43;;;;;;;7.88;2.83;;;;;;;;;;5075262;28;20479;-87
2021/12/31 11:13:18;;;;;;;7.15;3.20;;;;;;;;;;5075708;28;20086;-89
2021/12/31 11:15:45;;;;;;;8.63;3.38;;;;;;;;;;5075630;28;20087;-90
2021/12/31 11:18:13;;;;;;;5.72;2.78;;;;;;;;;;5074741;28;20049;-90
2021/12/31 11:20:40;;;;;;;9.43;2.90;;;;;;;;;;5074281;28;20079;-89
2021/12/31 11:23:06;;;;;;;7.80;3.20;;;;;;;;;;5072805;28;20092;-90
2021/12/31 11:25:32;;;;;;;6.97;3.30;;;;;;;;;;5075288;28;20102;-88
2021/12/31 11:27:59;;;;;;;9.20;3.28;;;;;;;;;;5075589;28;20044;-89
2021/12/31 11:30:31;;;;;;;10.10;3.30;;;;;;;;;;5073803;28;20040;-89
2021/12/31 11:33:04;;;;;;;6.70;2.78;;;;;;;;;;5074070;28;20044;-90
2021/12/31 11:35:32;;;;;;;9.50;3.53;;;;;;;;;;5074897;28;20048;-91
2021/12/31 11:37:58;;;;;;;8.20;3.50;;;;;;;;;;5075333;28;20127;-90
2021/12/31 11:40:30;;;;;;;7.57;2.83;;;;;;;;;;5073836;28;20041;-89
2021/12/31 11:43:15;;;;;;;8.50;3.13;;;;;;;;;;5075077;28;20039;-89
2021/12/31 11:45:41;;;;;;;6.03;3.35;;;;;;;;;;5074639;28;20424;-88
2021/12/31 11:48:42;;;;;;;8.88;3.47;;;;;;;;;;5073716;28;20041;-88
2021/12/31 11:51:08;;;;;;;7.70;3.22;;;;;;;;;;5073249;28;20068;-87
2021/12/31 11:53:54;;;;;;;8.60;3.15;;;;;;;;;;5073722;28;20037;-89
2021/12/31 11:56:45;;;;;;;12.35;3.70;;;;;;;;;;5073401;28;20487;-88
2021/12/31 11:59:17;;;;;;;8.40;3.90;;;;;;;;;;5073732;28;20048;-88
2021/12/31 12:01:47;;;;;;;7.35;4.20;;;;;;;;;;5073419;28;20040;-88
2021/12/31 12:04:26;;;;;;;8.80;3.97;;;;;;;;;;5073412;28;20105;-88
2021/12/31 12:06:52;;;;;;;7.22;3.80;;;;;;;;;;5074750;28;20056;-88
2021/12/31 12:09:17;;;;;;;8.77;4.20;;;;;;;;;;5074257;28;20040;-88
2021/12/31 12:12:03;;;;;;;12.43;5.10;;;;;;;;;;5074488;28;20054;-89
2021/12/31 12:14:30;;;;;;;11.82;4.65;;;;;;;;;;5073080;28;20116;-87
2021/12/31 12:16:59;;;;;;;12.38;4.80;;;;;;;;;;5074113;28;20067;-87
2021/12/31 12:19:43;;;;;;;10.40;5.10;;;;;;;;;;5074352;28;20041;-88
2021/12/31 12:22:09;;;;;;;11.70;4.40;;;;;;;;;;5072970;28;20048;-89
2021/12/31 12:24:36;;;;;;;9.82;4.32;;;;;;;;;;5072713;28;20064;-88
2021/12/31 12:27:02;;;;;;;10.48;4.03;;;;;;;;;;5073961;28;20166;-89
2021/12/31 12:29:28;;;;;;;7.93;3.75;;;;;;;;;;5073953;28;20514;-88
2021/12/31 12:32:07;;;;;;;10.50;4.53;;;;;;;;;;5072703;28;20040;-88
2021/12/31 12:34:33;;;;;;;8.15;3.70;;;;;;;;;;5072588;28;20044;-89
2021/12/31 12:36:59;;;;;;;9.77;3.95;;;;;;;;;;5073900;28;20055;-88
2021/12/31 12:39:25;;;;;;;8.50;3.92;;;;;;;;;;5072590;28;20052;-88
2021/12/31 12:41:51;;;;;;;8.55;4.00;;;;;;;;;;5073816;28;20481;-88
2021/12/31 12:44:17;;;;;;;10.93;3.85;;;;;;;;;;5072580;28;20041;-86
2021/12/31 12:47:09;;;;;;;9.25;4.05;;;;;;;;;;5072244;28;20036;-88
2021/12/31 12:49:35;;;;;;;6.78;3.72;;;;;;;;;;5072847;28;20510;-88
2021/12/31 12:52:11;;;;;;;8.65;4.18;;;;;;;;;;5073396;28;20040;-88
2021/12/31 12:54:37;;;;;;;8.05;4.22;;;;;;;;;;5073688;28;20047;-88
2021/12/31 12:57:04;;;;;;;9.68;4.25;;;;;;;;;;5074206;28;20455;-87
2021/12/31 12:59:30;;;;;;;8.85;4.30;;;;;;;;;;5073679;28;20051;-88
2021/12/31 13:01:57;;;;;;;10.55;5.18;;;;;;;;;;5072313;28;20127;-89
2021/12/31 13:04:24;;;;;;;9.38;3.85;;;;;;;;;;5071969;28;20058;-87
2021/12/31 13:06:56;;;;;;;7.38;4.03;;;;;;;;;;5071963;28;20071;-87
2021/12/31 13:09:23;;;;;;;9.18;4.43;;;;;;;;;;5072163;28;20036;-86
2021/12/31 13:11:51;;;;;;;7.05;2.70;;;;;;;;;;5072988;28;20040;-86
2021/12/31 13:14:24;;;;;;;7.90;2.95;;;;;;;;;;5071936;28;20119;-88
2021/12/31 13:16:51;;;;;;;6.03;3.08;;;;;;;;;;5071932;28;20403;-87
2021/12/31 13:19:17;;;;;;;7.50;2.80;;;;;;;;;;5073303;28;20068;-87
2021/12/31 13:21:43;;;;;;;7.53;2.65;;;;;;;;;;5071861;28;20052;-89
2021/12/31 13:24:18;;;;;;;6.82;2.55;;;;;;;;;;5071681;28;20053;-88
2021/12/31 13:26:51;;;;;;;8.57;2.90;;;;;;;;;;5071709;28;20044;-88
2021/12/31 13:29:29;;;;;;;5.88;2.53;;;;;;;;;;5071812;28;20123;-89
2021/12/31 13:32:03;;;;;;;4.93;2.47;;;;;;;;;;5071552;28;20167;-87
2021/12/31 13:34:38;;;;;;;4.63;2.42;;;;;;;;;;5071830;28;20510;-87
2021/12/31 13:37:04;;;;;;;6.03;2.50;;;;;;;;;;5071548;28;20046;-87
2021/12/31 13:39:31;;;;;;;5.18;2.47;;;;;;;;;;5072877;28;20044;-88
2021/12/31 13:41:58;;;;;;;5.10;2.53;;;;;;;;;;5071903;28;20044;-89
2021/12/31 13:44:45;;;;;;;7.07;2.50;;;;;;;;;;5070962;28;20052;-88
2021/12/31 13:47:12;;;;;;;6.82;2.58;;;;;;;;;;5068465;28;20048;-89
2021/12/31 13:49:40;;;;;;;7.10;2.58;;;;;;;;;;5071825;28;20499;-88
2021/12/31 13:52:26;;;;;;;7.65;2.58;;;;;;;;;;5072662;28;20067;-87
2021/12/31 13:54:53;;;;;;;7.65;2.65;;;;;;;;;;5071719;28;20074;-87
2021/12/31 13:57:23;;;;;;;6.90;2.50;;;;;;;;;;5054310;28;20124;-88
2021/12/31 13:59:50;;;;;;;8.02;2.97;;;;;;;;;;5072590;28;20060;-87
2021/12/31 14:02:20;;;;;;;9.15;3.50;;;;;;;;;;5072624;28;20044;-87
2021/12/31 14:04:58;;;;;;;6.82;3.28;;;;;;;;;;5072726;28;20068;-87
2021/12/31 14:07:30;;;;;;;10.00;3.58;;;;;;;;;;5072526;28;20052;-86
2021/12/31 14:09:57;;;;;;;12.95;3.83;;;;;;;;;;5071441;28;20098;-87
2021/12/31 14:12:23;;;;;;;13.32;4.40;;;;;;;;;;5070994;28;20069;-87
2021/12/31 14:14:49;;;;;;;15.15;4.30;;;;;;;;;;5072585;28;20040;-88
2021/12/31 14:17:15;;;;;;;14.88;4.45;;;;;;;;;;5072306;28;20056;-87
2021/12/31 14:19:41;;;;;;;11.45;4.40;;;;;;;;;;5072308;28;20119;-87
2021/12/31 14:22:08;;;;;;;12.85;4.80;;;;;;;;;;5072291;28;20040;-87
2021/12/31 14:24:35;;;;;;;17.35;5.57;;;;;;;;;;5071056;28;20395;-87
2021/12/31 14:27:02;;;;;;;18.45;6.03;;;;;;;;;;5071053;28;20091;-87
2021/12/31 14:29:29;;;;;;;17.05;5.90;;;;;;;;;;5054324;28;20048;-87
2021/12/31 14:31:54;;;;;;;14.93;5.50;;;;;;;;;;5070909;28;20040;-87
2021/12/31 14:34:24;;;;;;;17.83;6.15;;;;;;;;;;5070914;28;20139;-88
2021/12/31 14:36:58;;;;;;;17.40;5.53;;;;;;;;;;5072246;28;20040;-88
2021/12/31 14:39:27;;;;;;;14.13;6.35;;;;;;;;;;5070904;28;20045;-88
2021/12/31 14:41:54;;;;;;;17.52;6.07;;;;;;;;;;5072188;28;20055;-88